sensor_id;sensor_type;location;lat;lon;timestamp;temperature;humidity
75190;HTU21D;69198;44.694;37.790;2023-10-08T00:00:51;18.54;71.85
75190;HTU21D;69198;44.694;37.790;2023-10-08T00:01:56;18.54;71.80
75190;HTU21D;69198;44.694;37.790;2023-10-08T00:02:57;18.58;71.79
75190;HTU21D;69198;44.694;37.790;2023-10-08T00:03:58;18.56;71.78
75190;HTU21D;69198;44.694;37.790;2023-10-08T00:05:01;18.59;71.77
75190;HTU21D;69198;44.694;37.790;2023-10-08T00:06:03;18.61;71.77
75190;HTU21D;69198;44.694;37.790;2023-10-08T00:07:07;18.61;71.77
75190;HTU21D;69198;44.694;37.790;2023-10-08T00:08:09;18.61;71.80
75190;HTU21D;69198;44.694;37.790;2023-10-08T00:09:10;18.61;71.77
75190;HTU21D;69198;44.694;37.790;2023-10-08T00:10:11;18.62;71.79
75190;HTU21D;69198;44.694;37.790;2023-10-08T00:11:14;18.62;71.79
75190;HTU21D;69198;44.694;37.790;2023-10-08T00:12:17;18.63;71.67
75190;HTU21D;69198;44.694;37.790;2023-10-08T00:13:18;18.63;71.57
75190;HTU21D;69198;44.694;37.790;2023-10-08T00:14:19;18.65;71.48
75190;HTU21D;69198;44.694;37.790;2023-10-08T00:15:22;18.65;71.42
75190;HTU21D;69198;44.694;37.790;2023-10-08T00:16:26;18.63;71.41
75190;HTU21D;69198;44.694;37.790;2023-10-08T00:17:29;18.63;71.38
75190;HTU21D;69198;44.694;37.790;2023-10-08T00:18:32;18.64;71.38
75190;HTU21D;69198;44.694;37.790;2023-10-08T00:19:34;18.64;71.38
75190;HTU21D;69198;44.694;37.790;2023-10-08T00:20:37;18.64;71.36
75190;HTU21D;69198;44.694;37.790;2023-10-08T00:21:57;18.64;71.38
75190;HTU21D;69198;44.694;37.790;2023-10-08T00:23:05;18.64;71.34
75190;HTU21D;69198;44.694;37.790;2023-10-08T00:24:08;18.63;71.35
75190;HTU21D;69198;44.694;37.790;2023-10-08T00:25:09;18.63;71.34
75190;HTU21D;69198;44.694;37.790;2023-10-08T00:26:12;18.65;71.33
75190;HTU21D;69198;44.694;37.790;2023-10-08T00:27:16;18.66;71.30
75190;HTU21D;69198;44.694;37.790;2023-10-08T00:28:18;18.66;71.26
75190;HTU21D;69198;44.694;37.790;2023-10-08T00:29:21;18.68;71.20
75190;HTU21D;69198;44.694;37.790;2023-10-08T00:30:22;18.71;71.13
75190;HTU21D;69198;44.694;37.790;2023-10-08T00:31:23;18.70;71.13
75190;HTU21D;69198;44.694;37.790;2023-10-08T00:32:30;18.70;71.09
75190;HTU21D;69198;44.694;37.790;2023-10-08T00:33:32;18.71;71.06
75190;HTU21D;69198;44.694;37.790;2023-10-08T00:34:33;18.70;71.06
75190;HTU21D;69198;44.694;37.790;2023-10-08T00:35:39;18.67;71.10
75190;HTU21D;69198;44.694;37.790;2023-10-08T00:36:43;18.65;71.16
75190;HTU21D;69198;44.694;37.790;2023-10-08T00:37:44;18.64;71.24
75190;HTU21D;69198;44.694;37.790;2023-10-08T00:38:49;18.64;71.32
75190;HTU21D;69198;44.694;37.790;2023-10-08T00:39:53;18.63;71.35
75190;HTU21D;69198;44.694;37.790;2023-10-08T00:40:57;18.66;71.34
75190;HTU21D;69198;44.694;37.790;2023-10-08T00:42:00;18.67;71.28
75190;HTU21D;69198;44.694;37.790;2023-10-08T00:43:05;18.70;71.23
75190;HTU21D;69198;44.694;37.790;2023-10-08T00:44:12;18.72;71.24
75190;HTU21D;69198;44.694;37.790;2023-10-08T00:45:22;18.70;71.17
75190;HTU21D;69198;44.694;37.790;2023-10-08T00:46:25;18.72;71.11
75190;HTU21D;69198;44.694;37.790;2023-10-08T00:47:33;18.72;71.10
75190;HTU21D;69198;44.694;37.790;2023-10-08T00:48:40;18.72;71.10
75190;HTU21D;69198;44.694;37.790;2023-10-08T00:49:45;18.73;71.09
75190;HTU21D;69198;44.694;37.790;2023-10-08T00:50:46;18.73;71.07
75190;HTU21D;69198;44.694;37.790;2023-10-08T00:51:53;18.74;71.02
75190;HTU21D;69198;44.694;37.790;2023-10-08T00:53:10;18.73;70.94
75190;HTU21D;69198;44.694;37.790;2023-10-08T00:54:22;18.73;70.87
75190;HTU21D;69198;44.694;37.790;2023-10-08T00:55:25;18.71;70.84
75190;HTU21D;69198;44.694;37.790;2023-10-08T00:56:30;18.70;70.84
75190;HTU21D;69198;44.694;37.790;2023-10-08T00:57:47;18.69;70.82
75190;HTU21D;69198;44.694;37.790;2023-10-08T00:58:51;18.70;70.77
75190;HTU21D;69198;44.694;37.790;2023-10-08T00:59:54;18.71;70.67
75190;HTU21D;69198;44.694;37.790;2023-10-08T01:00:56;18.73;70.61
75190;HTU21D;69198;44.694;37.790;2023-10-08T01:02:00;18.73;70.58
75190;HTU21D;69198;44.694;37.790;2023-10-08T01:03:07;18.72;70.57
75190;HTU21D;69198;44.694;37.790;2023-10-08T01:04:20;18.72;70.58
75190;HTU21D;69198;44.694;37.790;2023-10-08T01:05:27;18.70;70.58
75190;HTU21D;69198;44.694;37.790;2023-10-08T01:06:51;18.69;70.66
75190;HTU21D;69198;44.694;37.790;2023-10-08T01:07:56;18.68;70.70
75190;HTU21D;69198;44.694;37.790;2023-10-08T01:08:59;18.69;70.70
75190;HTU21D;69198;44.694;37.790;2023-10-08T01:10:10;18.66;70.73
75190;HTU21D;69198;44.694;37.790;2023-10-08T01:11:24;18.68;70.77
75190;HTU21D;69198;44.694;37.790;2023-10-08T01:12:57;18.59;70.83
75190;HTU21D;69198;44.694;37.790;2023-10-08T01:14:14;18.58;70.93
75190;HTU21D;69198;44.694;37.790;2023-10-08T01:15:15;18.57;71.01
75190;HTU21D;69198;44.694;37.790;2023-10-08T01:16:25;18.55;71.15
75190;HTU21D;69198;44.694;37.790;2023-10-08T01:17:30;18.53;71.26
75190;HTU21D;69198;44.694;37.790;2023-10-08T01:18:33;18.54;71.31
75190;HTU21D;69198;44.694;37.790;2023-10-08T01:19:35;18.55;71.34
75190;HTU21D;69198;44.694;37.790;2023-10-08T01:20:41;18.57;71.37
75190;HTU21D;69198;44.694;37.790;2023-10-08T01:21:49;18.55;71.38
75190;HTU21D;69198;44.694;37.790;2023-10-08T01:22:50;18.57;71.38
75190;HTU21D;69198;44.694;37.790;2023-10-08T01:23:51;18.59;71.34
75190;HTU21D;69198;44.694;37.790;2023-10-08T01:24:55;18.62;71.32
75190;HTU21D;69198;44.694;37.790;2023-10-08T01:25:56;18.62;71.29
75190;HTU21D;69198;44.694;37.790;2023-10-08T01:27:13;18.62;71.29
75190;HTU21D;69198;44.694;37.790;2023-10-08T01:28:21;18.62;71.34
75190;HTU21D;69198;44.694;37.790;2023-10-08T01:29:29;18.63;71.37
75190;HTU21D;69198;44.694;37.790;2023-10-08T01:30:32;18.65;71.37
75190;HTU21D;69198;44.694;37.790;2023-10-08T01:31:42;18.65;71.37
75190;HTU21D;69198;44.694;37.790;2023-10-08T01:32:43;18.67;71.31
75190;HTU21D;69198;44.694;37.790;2023-10-08T01:33:44;18.68;71.25
75190;HTU21D;69198;44.694;37.790;2023-10-08T01:34:51;18.70;71.25
75190;HTU21D;69198;44.694;37.790;2023-10-08T01:35:52;18.70;71.24
75190;HTU21D;69198;44.694;37.790;2023-10-08T01:36:53;18.71;71.24
75190;HTU21D;69198;44.694;37.790;2023-10-08T01:37:54;18.71;71.22
75190;HTU21D;69198;44.694;37.790;2023-10-08T01:38:57;18.72;71.22
75190;HTU21D;69198;44.694;37.790;2023-10-08T01:39:58;18.76;71.23
75190;HTU21D;69198;44.694;37.790;2023-10-08T01:41:02;18.78;71.22
75190;HTU21D;69198;44.694;37.790;2023-10-08T01:42:04;18.78;71.22
75190;HTU21D;69198;44.694;37.790;2023-10-08T01:43:06;18.78;71.24
75190;HTU21D;69198;44.694;37.790;2023-10-08T01:44:08;18.79;71.25
75190;HTU21D;69198;44.694;37.790;2023-10-08T01:45:09;18.81;71.29
75190;HTU21D;69198;44.694;37.790;2023-10-08T01:46:19;18.80;71.31
75190;HTU21D;69198;44.694;37.790;2023-10-08T01:47:22;18.80;71.34
75190;HTU21D;69198;44.694;37.790;2023-10-08T01:48:26;18.80;71.35
75190;HTU21D;69198;44.694;37.790;2023-10-08T01:49:37;18.81;71.35
75190;HTU21D;69198;44.694;37.790;2023-10-08T01:50:40;18.81;71.38
75190;HTU21D;69198;44.694;37.790;2023-10-08T01:51:42;18.80;71.42
75190;HTU21D;69198;44.694;37.790;2023-10-08T01:52:50;18.82;71.42
75190;HTU21D;69198;44.694;37.790;2023-10-08T01:53:54;18.80;71.48
75190;HTU21D;69198;44.694;37.790;2023-10-08T01:54:59;18.81;71.47
75190;HTU21D;69198;44.694;37.790;2023-10-08T01:56:00;18.82;71.44
75190;HTU21D;69198;44.694;37.790;2023-10-08T01:57:02;18.84;71.42
75190;HTU21D;69198;44.694;37.790;2023-10-08T01:58:04;18.84;71.40
75190;HTU21D;69198;44.694;37.790;2023-10-08T01:59:05;18.86;71.38
75190;HTU21D;69198;44.694;37.790;2023-10-08T02:00:07;18.87;71.36
75190;HTU21D;69198;44.694;37.790;2023-10-08T02:01:12;18.87;71.36
75190;HTU21D;69198;44.694;37.790;2023-10-08T02:02:14;18.89;71.37
75190;HTU21D;69198;44.694;37.790;2023-10-08T02:03:16;18.88;71.41
75190;HTU21D;69198;44.694;37.790;2023-10-08T02:04:18;18.89;71.45
75190;HTU21D;69198;44.694;37.790;2023-10-08T02:05:19;18.89;71.49
75190;HTU21D;69198;44.694;37.790;2023-10-08T02:06:21;18.89;71.57
75190;HTU21D;69198;44.694;37.790;2023-10-08T02:07:22;18.91;71.56
75190;HTU21D;69198;44.694;37.790;2023-10-08T02:08:23;18.91;71.59
75190;HTU21D;69198;44.694;37.790;2023-10-08T02:09:24;18.92;71.61
75190;HTU21D;69198;44.694;37.790;2023-10-08T02:10:27;18.91;71.62
75190;HTU21D;69198;44.694;37.790;2023-10-08T02:11:29;18.91;71.66
75190;HTU21D;69198;44.694;37.790;2023-10-08T02:12:30;18.88;71.73
75190;HTU21D;69198;44.694;37.790;2023-10-08T02:13:31;18.88;71.82
75190;HTU21D;69198;44.694;37.790;2023-10-08T02:14:35;18.88;71.87
75190;HTU21D;69198;44.694;37.790;2023-10-08T02:15:40;18.91;71.93
75190;HTU21D;69198;44.694;37.790;2023-10-08T02:16:43;18.87;71.97
75190;HTU21D;69198;44.694;37.790;2023-10-08T02:17:45;18.88;72.03
75190;HTU21D;69198;44.694;37.790;2023-10-08T02:18:46;18.89;72.07
75190;HTU21D;69198;44.694;37.790;2023-10-08T02:19:47;18.88;72.13
75190;HTU21D;69198;44.694;37.790;2023-10-08T02:20:48;18.88;72.18
75190;HTU21D;69198;44.694;37.790;2023-10-08T02:21:49;18.87;72.22
75190;HTU21D;69198;44.694;37.790;2023-10-08T02:22:50;18.88;72.31
75190;HTU21D;69198;44.694;37.790;2023-10-08T02:23:51;18.87;72.29
75190;HTU21D;69198;44.694;37.790;2023-10-08T02:24:53;18.87;72.29
75190;HTU21D;69198;44.694;37.790;2023-10-08T02:25:55;18.85;72.29
75190;HTU21D;69198;44.694;37.790;2023-10-08T02:26:56;18.85;72.27
75190;HTU21D;69198;44.694;37.790;2023-10-08T02:27:58;18.84;72.28
75190;HTU21D;69198;44.694;37.790;2023-10-08T02:29:00;18.85;72.25
75190;HTU21D;69198;44.694;37.790;2023-10-08T02:30:01;18.84;72.23
75190;HTU21D;69198;44.694;37.790;2023-10-08T02:31:04;18.83;72.21
75190;HTU21D;69198;44.694;37.790;2023-10-08T02:32:06;18.85;72.18
75190;HTU21D;69198;44.694;37.790;2023-10-08T02:33:27;18.85;72.13
75190;HTU21D;69198;44.694;37.790;2023-10-08T02:34:28;18.85;72.15
75190;HTU21D;69198;44.694;37.790;2023-10-08T02:35:29;18.85;72.16
75190;HTU21D;69198;44.694;37.790;2023-10-08T02:36:30;18.84;72.17
75190;HTU21D;69198;44.694;37.790;2023-10-08T02:37:31;18.83;72.19
75190;HTU21D;69198;44.694;37.790;2023-10-08T02:38:36;18.82;72.22
75190;HTU21D;69198;44.694;37.790;2023-10-08T02:39:38;18.82;72.25
75190;HTU21D;69198;44.694;37.790;2023-10-08T02:40:41;18.81;72.27
75190;HTU21D;69198;44.694;37.790;2023-10-08T02:41:46;18.81;72.31
75190;HTU21D;69198;44.694;37.790;2023-10-08T02:42:48;18.81;72.34
75190;HTU21D;69198;44.694;37.790;2023-10-08T02:43:49;18.81;72.30
75190;HTU21D;69198;44.694;37.790;2023-10-08T02:44:50;18.80;72.19
75190;HTU21D;69198;44.694;37.790;2023-10-08T02:45:51;18.79;72.00
75190;HTU21D;69198;44.694;37.790;2023-10-08T02:46:53;18.78;71.81
75190;HTU21D;69198;44.694;37.790;2023-10-08T02:47:56;18.76;71.64
75190;HTU21D;69198;44.694;37.790;2023-10-08T02:48:57;18.74;71.47
75190;HTU21D;69198;44.694;37.790;2023-10-08T02:49:58;18.72;71.39
75190;HTU21D;69198;44.694;37.790;2023-10-08T02:50:59;18.71;71.33
75190;HTU21D;69198;44.694;37.790;2023-10-08T02:52:08;18.69;71.36
75190;HTU21D;69198;44.694;37.790;2023-10-08T02:53:09;18.68;71.35
75190;HTU21D;69198;44.694;37.790;2023-10-08T02:54:14;18.64;71.42
75190;HTU21D;69198;44.694;37.790;2023-10-08T02:55:23;18.59;71.51
75190;HTU21D;69198;44.694;37.790;2023-10-08T02:56:35;18.58;71.61
75190;HTU21D;69198;44.694;37.790;2023-10-08T02:57:35;18.57;71.70
75190;HTU21D;69198;44.694;37.790;2023-10-08T02:58:37;18.57;71.70
75190;HTU21D;69198;44.694;37.790;2023-10-08T02:59:38;18.55;71.62
75190;HTU21D;69198;44.694;37.790;2023-10-08T03:00:44;18.52;71.56
75190;HTU21D;69198;44.694;37.790;2023-10-08T03:01:47;18.49;71.49
75190;HTU21D;69198;44.694;37.790;2023-10-08T03:02:50;18.47;71.40
75190;HTU21D;69198;44.694;37.790;2023-10-08T03:03:53;18.44;71.30
75190;HTU21D;69198;44.694;37.790;2023-10-08T03:05:04;18.41;71.23
75190;HTU21D;69198;44.694;37.790;2023-10-08T03:06:09;18.39;71.17
75190;HTU21D;69198;44.694;37.790;2023-10-08T03:07:16;18.36;71.22
75190;HTU21D;69198;44.694;37.790;2023-10-08T03:08:25;18.33;71.22
75190;HTU21D;69198;44.694;37.790;2023-10-08T03:09:31;18.30;71.25
75190;HTU21D;69198;44.694;37.790;2023-10-08T03:10:33;18.33;71.19
75190;HTU21D;69198;44.694;37.790;2023-10-08T03:11:34;18.30;71.15
75190;HTU21D;69198;44.694;37.790;2023-10-08T03:12:38;18.28;71.19
75190;HTU21D;69198;44.694;37.790;2023-10-08T03:13:40;18.26;71.22
75190;HTU21D;69198;44.694;37.790;2023-10-08T03:14:41;18.26;71.20
75190;HTU21D;69198;44.694;37.790;2023-10-08T03:16:01;18.23;71.19
75190;HTU21D;69198;44.694;37.790;2023-10-08T03:17:02;18.21;71.12
75190;HTU21D;69198;44.694;37.790;2023-10-08T03:18:08;18.20;71.08
75190;HTU21D;69198;44.694;37.790;2023-10-08T03:19:16;18.19;70.95
75190;HTU21D;69198;44.694;37.790;2023-10-08T03:20:19;18.18;70.87
75190;HTU21D;69198;44.694;37.790;2023-10-08T03:21:39;18.14;70.90
75190;HTU21D;69198;44.694;37.790;2023-10-08T03:22:40;18.14;70.84
75190;HTU21D;69198;44.694;37.790;2023-10-08T03:23:46;18.14;70.74
75190;HTU21D;69198;44.694;37.790;2023-10-08T03:24:58;18.12;70.69
75190;HTU21D;69198;44.694;37.790;2023-10-08T03:26:14;18.11;70.61
75190;HTU21D;69198;44.694;37.790;2023-10-08T03:27:33;18.11;70.47
75190;HTU21D;69198;44.694;37.790;2023-10-08T03:28:42;18.13;70.35
75190;HTU21D;69198;44.694;37.790;2023-10-08T03:29:43;18.14;70.23
75190;HTU21D;69198;44.694;37.790;2023-10-08T03:30:49;18.15;70.08
75190;HTU21D;69198;44.694;37.790;2023-10-08T03:31:51;18.17;69.87
75190;HTU21D;69198;44.694;37.790;2023-10-08T03:32:54;18.17;69.74
75190;HTU21D;69198;44.694;37.790;2023-10-08T03:34:00;18.14;69.63
75190;HTU21D;69198;44.694;37.790;2023-10-08T03:35:01;18.12;69.57
75190;HTU21D;69198;44.694;37.790;2023-10-08T03:36:06;18.12;69.51
75190;HTU21D;69198;44.694;37.790;2023-10-08T03:37:16;18.10;69.51
75190;HTU21D;69198;44.694;37.790;2023-10-08T03:38:21;18.10;69.42
75190;HTU21D;69198;44.694;37.790;2023-10-08T03:39:48;18.11;69.41
75190;HTU21D;69198;44.694;37.790;2023-10-08T03:40:52;18.11;69.45
75190;HTU21D;69198;44.694;37.790;2023-10-08T03:41:57;18.10;69.49
75190;HTU21D;69198;44.694;37.790;2023-10-08T03:43:06;18.07;69.55
75190;HTU21D;69198;44.694;37.790;2023-10-08T03:44:16;18.06;69.62
75190;HTU21D;69198;44.694;37.790;2023-10-08T03:45:17;18.03;69.68
75190;HTU21D;69198;44.694;37.790;2023-10-08T03:46:39;18.00;69.82
75190;HTU21D;69198;44.694;37.790;2023-10-08T03:47:43;17.99;69.89
75190;HTU21D;69198;44.694;37.790;2023-10-08T03:48:53;17.99;70.00
75190;HTU21D;69198;44.694;37.790;2023-10-08T03:49:58;17.99;70.07
75190;HTU21D;69198;44.694;37.790;2023-10-08T03:51:06;18.00;70.15
75190;HTU21D;69198;44.694;37.790;2023-10-08T03:52:07;18.03;70.19
75190;HTU21D;69198;44.694;37.790;2023-10-08T03:53:09;18.03;70.23
75190;HTU21D;69198;44.694;37.790;2023-10-08T03:54:12;18.03;70.29
75190;HTU21D;69198;44.694;37.790;2023-10-08T03:55:16;18.03;70.26
75190;HTU21D;69198;44.694;37.790;2023-10-08T03:56:19;18.05;70.26
75190;HTU21D;69198;44.694;37.790;2023-10-08T03:57:20;18.07;70.29
75190;HTU21D;69198;44.694;37.790;2023-10-08T03:58:41;18.08;70.35
75190;HTU21D;69198;44.694;37.790;2023-10-08T03:59:47;18.12;70.32
75190;HTU21D;69198;44.694;37.790;2023-10-08T04:00:49;18.15;70.31
75190;HTU21D;69198;44.694;37.790;2023-10-08T04:01:50;18.18;70.32
75190;HTU21D;69198;44.694;37.790;2023-10-08T04:02:55;18.23;70.32
75190;HTU21D;69198;44.694;37.790;2023-10-08T04:04:01;18.29;70.29
75190;HTU21D;69198;44.694;37.790;2023-10-08T04:05:02;18.32;70.28
75190;HTU21D;69198;44.694;37.790;2023-10-08T04:06:22;18.37;70.27
75190;HTU21D;69198;44.694;37.790;2023-10-08T04:07:29;18.41;70.19
75190;HTU21D;69198;44.694;37.790;2023-10-08T04:09:00;18.43;70.14
75190;HTU21D;69198;44.694;37.790;2023-10-08T04:10:10;18.47;70.09
75190;HTU21D;69198;44.694;37.790;2023-10-08T04:11:10;18.48;70.05
75190;HTU21D;69198;44.694;37.790;2023-10-08T04:12:36;18.51;69.95
75190;HTU21D;69198;44.694;37.790;2023-10-08T04:13:45;18.54;69.89
75190;HTU21D;69198;44.694;37.790;2023-10-08T04:14:49;18.57;69.81
75190;HTU21D;69198;44.694;37.790;2023-10-08T04:15:50;18.59;69.76
75190;HTU21D;69198;44.694;37.790;2023-10-08T04:16:51;18.63;69.66
75190;HTU21D;69198;44.694;37.790;2023-10-08T04:17:52;18.67;69.62
75190;HTU21D;69198;44.694;37.790;2023-10-08T04:18:54;18.72;69.53
75190;HTU21D;69198;44.694;37.790;2023-10-08T04:19:56;18.79;69.39
75190;HTU21D;69198;44.694;37.790;2023-10-08T04:20:59;18.86;69.17
75190;HTU21D;69198;44.694;37.790;2023-10-08T04:22:01;18.92;69.01
75190;HTU21D;69198;44.694;37.790;2023-10-08T04:23:04;18.95;68.90
75190;HTU21D;69198;44.694;37.790;2023-10-08T04:24:05;18.97;68.84
75190;HTU21D;69198;44.694;37.790;2023-10-08T04:25:07;19.01;68.78
75190;HTU21D;69198;44.694;37.790;2023-10-08T04:26:09;19.05;68.73
75190;HTU21D;69198;44.694;37.790;2023-10-08T04:27:10;19.07;68.66
75190;HTU21D;69198;44.694;37.790;2023-10-08T04:28:11;19.11;68.52
75190;HTU21D;69198;44.694;37.790;2023-10-08T04:29:18;19.13;68.40
75190;HTU21D;69198;44.694;37.790;2023-10-08T04:30:23;19.16;68.29
75190;HTU21D;69198;44.694;37.790;2023-10-08T04:31:29;19.21;68.17
75190;HTU21D;69198;44.694;37.790;2023-10-08T04:32:37;19.25;68.06
75190;HTU21D;69198;44.694;37.790;2023-10-08T04:33:38;19.30;67.94
75190;HTU21D;69198;44.694;37.790;2023-10-08T04:34:39;19.39;67.81
75190;HTU21D;69198;44.694;37.790;2023-10-08T04:35:46;19.43;67.65
75190;HTU21D;69198;44.694;37.790;2023-10-08T04:36:56;19.47;67.52
75190;HTU21D;69198;44.694;37.790;2023-10-08T04:38:04;19.48;67.46
75190;HTU21D;69198;44.694;37.790;2023-10-08T04:39:09;19.47;67.49
75190;HTU21D;69198;44.694;37.790;2023-10-08T04:40:16;19.45;67.60
75190;HTU21D;69198;44.694;37.790;2023-10-08T04:41:17;19.46;67.62
75190;HTU21D;69198;44.694;37.790;2023-10-08T04:42:20;19.45;67.59
75190;HTU21D;69198;44.694;37.790;2023-10-08T04:43:26;19.45;67.61
75190;HTU21D;69198;44.694;37.790;2023-10-08T04:44:28;19.47;67.59
75190;HTU21D;69198;44.694;37.790;2023-10-08T04:45:32;19.48;67.56
75190;HTU21D;69198;44.694;37.790;2023-10-08T04:46:35;19.53;67.52
75190;HTU21D;69198;44.694;37.790;2023-10-08T04:47:40;19.56;67.46
75190;HTU21D;69198;44.694;37.790;2023-10-08T04:48:42;19.58;67.43
75190;HTU21D;69198;44.694;37.790;2023-10-08T04:49:44;19.59;67.39
75190;HTU21D;69198;44.694;37.790;2023-10-08T04:50:47;19.63;67.30
75190;HTU21D;69198;44.694;37.790;2023-10-08T04:53:00;19.63;67.26
75190;HTU21D;69198;44.694;37.790;2023-10-08T04:54:02;19.65;67.20
75190;HTU21D;69198;44.694;37.790;2023-10-08T04:55:06;19.71;67.05
75190;HTU21D;69198;44.694;37.790;2023-10-08T04:56:15;19.76;66.86
75190;HTU21D;69198;44.694;37.790;2023-10-08T04:57:19;19.79;66.69
75190;HTU21D;69198;44.694;37.790;2023-10-08T04:58:23;19.87;66.53
75190;HTU21D;69198;44.694;37.790;2023-10-08T04:59:34;20.24;66.09
75190;HTU21D;69198;44.694;37.790;2023-10-08T05:00:35;20.79;64.84
75190;HTU21D;69198;44.694;37.790;2023-10-08T05:01:44;21.46;63.27
75190;HTU21D;69198;44.694;37.790;2023-10-08T05:02:48;22.12;61.91
75190;HTU21D;69198;44.694;37.790;2023-10-08T05:03:56;22.81;60.39
75190;HTU21D;69198;44.694;37.790;2023-10-08T05:04:57;23.35;59.14
75190;HTU21D;69198;44.694;37.790;2023-10-08T05:05:58;23.71;58.40
75190;HTU21D;69198;44.694;37.790;2023-10-08T05:07:10;24.18;57.38
75190;HTU21D;69198;44.694;37.790;2023-10-08T05:08:29;24.59;56.53
75190;HTU21D;69198;44.694;37.790;2023-10-08T05:09:36;24.85;55.88
75190;HTU21D;69198;44.694;37.790;2023-10-08T05:10:48;25.04;54.90
75190;HTU21D;69198;44.694;37.790;2023-10-08T05:12:04;25.18;54.58
75190;HTU21D;69198;44.694;37.790;2023-10-08T05:13:23;25.30;54.21
75190;HTU21D;69198;44.694;37.790;2023-10-08T05:14:33;25.53;53.77
75190;HTU21D;69198;44.694;37.790;2023-10-08T05:15:34;25.94;52.79
75190;HTU21D;69198;44.694;37.790;2023-10-08T05:17:03;26.48;51.65
75190;HTU21D;69198;44.694;37.790;2023-10-08T05:18:10;26.76;50.64
75190;HTU21D;69198;44.694;37.790;2023-10-08T05:19:19;26.89;50.23
75190;HTU21D;69198;44.694;37.790;2023-10-08T05:20:46;26.92;49.49
75190;HTU21D;69198;44.694;37.790;2023-10-08T05:21:51;27.00;49.14
75190;HTU21D;69198;44.694;37.790;2023-10-08T05:23:15;26.84;49.02
75190;HTU21D;69198;44.694;37.790;2023-10-08T05:24:25;26.70;49.71
75190;HTU21D;69198;44.694;37.790;2023-10-08T05:25:42;26.76;49.49
75190;HTU21D;69198;44.694;37.790;2023-10-08T05:26:58;27.04;49.21
75190;HTU21D;69198;44.694;37.790;2023-10-08T05:28:22;27.24;48.46
75190;HTU21D;69198;44.694;37.790;2023-10-08T05:29:26;27.27;48.24
75190;HTU21D;69198;44.694;37.790;2023-10-08T05:30:50;27.55;48.02
75190;HTU21D;69198;44.694;37.790;2023-10-08T05:32:09;27.85;47.35
75190;HTU21D;69198;44.694;37.790;2023-10-08T05:33:39;28.10;46.49
75190;HTU21D;69198;44.694;37.790;2023-10-08T05:34:58;27.93;46.52
75190;HTU21D;69198;44.694;37.790;2023-10-08T05:36:19;27.64;46.43
75190;HTU21D;69198;44.694;37.790;2023-10-08T05:37:31;27.28;47.01
75190;HTU21D;69198;44.694;37.790;2023-10-08T05:38:38;27.40;46.80
75190;HTU21D;69198;44.694;37.790;2023-10-08T05:39:49;27.79;46.27
75190;HTU21D;69198;44.694;37.790;2023-10-08T05:40:57;28.27;45.28
75190;HTU21D;69198;44.694;37.790;2023-10-08T05:41:58;28.58;43.89
75190;HTU21D;69198;44.694;37.790;2023-10-08T05:43:20;28.74;43.42
75190;HTU21D;69198;44.694;37.790;2023-10-08T05:44:45;28.94;43.34
75190;HTU21D;69198;44.694;37.790;2023-10-08T05:45:47;29.21;42.65
75190;HTU21D;69198;44.694;37.790;2023-10-08T05:47:07;29.65;42.07
75190;HTU21D;69198;44.694;37.790;2023-10-08T05:48:29;29.47;41.91
75190;HTU21D;69198;44.694;37.790;2023-10-08T05:49:33;29.04;42.27
75190;HTU21D;69198;44.694;37.790;2023-10-08T05:50:34;28.62;42.94
75190;HTU21D;69198;44.694;37.790;2023-10-08T05:51:55;28.52;43.52
75190;HTU21D;69198;44.694;37.790;2023-10-08T05:53:02;28.63;43.40
75190;HTU21D;69198;44.694;37.790;2023-10-08T05:54:20;28.71;42.97
75190;HTU21D;69198;44.694;37.790;2023-10-08T05:55:33;28.50;43.42
75190;HTU21D;69198;44.694;37.790;2023-10-08T05:56:35;28.40;43.48
75190;HTU21D;69198;44.694;37.790;2023-10-08T05:58:00;28.74;43.19
75190;HTU21D;69198;44.694;37.790;2023-10-08T05:59:14;29.28;42.51
75190;HTU21D;69198;44.694;37.790;2023-10-08T06:00:18;29.81;41.47
75190;HTU21D;69198;44.694;37.790;2023-10-08T06:01:42;30.33;40.75
75190;HTU21D;69198;44.694;37.790;2023-10-08T06:02:46;30.60;39.96
75190;HTU21D;69198;44.694;37.790;2023-10-08T06:03:47;30.70;39.48
75190;HTU21D;69198;44.694;37.790;2023-10-08T06:06:11;31.10;38.66
75190;HTU21D;69198;44.694;37.790;2023-10-08T06:07:12;31.24;38.06
75190;HTU21D;69198;44.694;37.790;2023-10-08T06:08:21;31.38;37.68
75190;HTU21D;69198;44.694;37.790;2023-10-08T06:09:39;31.18;37.70
75190;HTU21D;69198;44.694;37.790;2023-10-08T06:10:41;30.97;37.84
75190;HTU21D;69198;44.694;37.790;2023-10-08T06:11:42;30.82;38.21
75190;HTU21D;69198;44.694;37.790;2023-10-08T06:13:01;30.77;38.38
75190;HTU21D;69198;44.694;37.790;2023-10-08T06:14:07;30.86;38.21
75190;HTU21D;69198;44.694;37.790;2023-10-08T06:15:14;31.08;37.97
75190;HTU21D;69198;44.694;37.790;2023-10-08T06:16:17;31.24;37.56
75190;HTU21D;69198;44.694;37.790;2023-10-08T06:17:32;31.23;37.25
75190;HTU21D;69198;44.694;37.790;2023-10-08T06:18:56;31.18;37.20
75190;HTU21D;69198;44.694;37.790;2023-10-08T06:19:57;31.15;37.08
75190;HTU21D;69198;44.694;37.790;2023-10-08T06:21:03;31.25;36.75
75190;HTU21D;69198;44.694;37.790;2023-10-08T06:22:12;31.28;36.85
75190;HTU21D;69198;44.694;37.790;2023-10-08T06:23:14;31.37;36.75
75190;HTU21D;69198;44.694;37.790;2023-10-08T06:24:23;31.29;36.82
75190;HTU21D;69198;44.694;37.790;2023-10-08T06:25:24;31.18;36.95
75190;HTU21D;69198;44.694;37.790;2023-10-08T06:26:49;30.92;37.46
75190;HTU21D;69198;44.694;37.790;2023-10-08T06:27:51;30.95;37.40
75190;HTU21D;69198;44.694;37.790;2023-10-08T06:28:56;31.20;37.13
75190;HTU21D;69198;44.694;37.790;2023-10-08T06:29:59;31.34;36.76
75190;HTU21D;69198;44.694;37.790;2023-10-08T06:31:01;31.37;36.56
75190;HTU21D;69198;44.694;37.790;2023-10-08T06:32:04;31.46;36.52
75190;HTU21D;69198;44.694;37.790;2023-10-08T06:33:05;31.61;36.34
75190;HTU21D;69198;44.694;37.790;2023-10-08T06:34:06;31.73;36.04
75190;HTU21D;69198;44.694;37.790;2023-10-08T06:35:09;31.60;36.03
75190;HTU21D;69198;44.694;37.790;2023-10-08T06:36:40;31.45;36.42
75190;HTU21D;69198;44.694;37.790;2023-10-08T06:37:46;31.42;36.50
75190;HTU21D;69198;44.694;37.790;2023-10-08T06:38:55;31.57;36.41
75190;HTU21D;69198;44.694;37.790;2023-10-08T06:39:56;31.83;35.92
75190;HTU21D;69198;44.694;37.790;2023-10-08T06:40:59;31.99;35.72
75190;HTU21D;69198;44.694;37.790;2023-10-08T06:42:15;31.99;35.73
75190;HTU21D;69198;44.694;37.790;2023-10-08T06:43:17;31.95;35.74
75190;HTU21D;69198;44.694;37.790;2023-10-08T06:44:25;31.99;35.76
75190;HTU21D;69198;44.694;37.790;2023-10-08T06:45:28;31.98;35.66
75190;HTU21D;69198;44.694;37.790;2023-10-08T06:46:31;32.03;35.56
75190;HTU21D;69198;44.694;37.790;2023-10-08T06:47:35;32.17;35.49
75190;HTU21D;69198;44.694;37.790;2023-10-08T06:48:36;32.20;35.41